sensor_id;sensor_type;location;lat;lon;timestamp;P1;durP1;ratioP1;P2;durP2;ratioP2
7881;SDS011;3986;41.884;23.466;2022-09-27T00:00:40;18.73;;;15.48;;
7881;SDS011;3986;41.884;23.466;2022-09-27T00:03:07;20.87;;;15.07;;
7881;SDS011;3986;41.884;23.466;2022-09-27T00:05:34;22.27;;;14.80;;
7881;SDS011;3986;41.884;23.466;2022-09-27T00:08:01;21.93;;;19.00;;
7881;SDS011;3986;41.884;23.466;2022-09-27T00:10:30;20.70;;;18.53;;
7881;SDS011;3986;41.884;23.466;2022-09-27T00:12:57;23.75;;;21.65;;
7881;SDS011;3986;41.884;23.466;2022-09-27T00:15:24;22.57;;;20.23;;
7881;SDS011;3986;41.884;23.466;2022-09-27T00:17:52;22.20;;;20.15;;
7881;SDS011;3986;41.884;23.466;2022-09-27T00:20:19;27.47;;;25.07;;
7881;SDS011;3986;41.884;23.466;2022-09-27T00:22:46;27.60;;;25.35;;
7881;SDS011;3986;41.884;23.466;2022-09-27T00:25:14;26.70;;;24.17;;
7881;SDS011;3986;41.884;23.466;2022-09-27T00:27:43;26.90;;;24.45;;
7881;SDS011;3986;41.884;23.466;2022-09-27T00:30:11;26.87;;;24.00;;
7881;SDS011;3986;41.884;23.466;2022-09-27T00:32:38;28.15;;;25.73;;
7881;SDS011;3986;41.884;23.466;2022-09-27T00:35:05;28.40;;;25.85;;
7881;SDS011;3986;41.884;23.466;2022-09-27T00:37:33;30.33;;;27.42;;
7881;SDS011;3986;41.884;23.466;2022-09-27T00:40:00;30.80;;;28.17;;
7881;SDS011;3986;41.884;23.466;2022-09-27T00:42:27;28.35;;;25.65;;
7881;SDS011;3986;41.884;23.466;2022-09-27T00:45:03;28.08;;;25.77;;
7881;SDS011;3986;41.884;23.466;2022-09-27T00:47:33;30.37;;;27.73;;
7881;SDS011;3986;41.884;23.466;2022-09-27T00:50:07;28.30;;;25.43;;
7881;SDS011;3986;41.884;23.466;2022-09-27T00:52:42;27.85;;;25.42;;
7881;SDS011;3986;41.884;23.466;2022-09-27T00:55:17;30.77;;;28.17;;
7881;SDS011;3986;41.884;23.466;2022-09-27T00:57:45;27.03;;;24.50;;
7881;SDS011;3986;41.884;23.466;2022-09-27T01:00:15;27.52;;;25.25;;
7881;SDS011;3986;41.884;23.466;2022-09-27T01:02:43;27.23;;;24.52;;
7881;SDS011;3986;41.884;23.466;2022-09-27T01:05:13;27.87;;;25.43;;
7881;SDS011;3986;41.884;23.466;2022-09-27T01:07:41;33.33;;;29.97;;
7881;SDS011;3986;41.884;23.466;2022-09-27T01:10:08;37.87;;;34.00;;
7881;SDS011;3986;41.884;23.466;2022-09-27T01:12:38;29.77;;;26.83;;
7881;SDS011;3986;41.884;23.466;2022-09-27T01:15:16;29.13;;;25.83;;
7881;SDS011;3986;41.884;23.466;2022-09-27T01:17:52;26.85;;;24.70;;
7881;SDS011;3986;41.884;23.466;2022-09-27T01:20:51;33.00;;;30.10;;
7881;SDS011;3986;41.884;23.466;2022-09-27T01:23:37;26.37;;;24.13;;
7881;SDS011;3986;41.884;23.466;2022-09-27T01:26:31;24.63;;;22.52;;
7881;SDS011;3986;41.884;23.466;2022-09-27T01:29:10;27.90;;;25.45;;
7881;SDS011;3986;41.884;23.466;2022-09-27T01:31:44;26.73;;;24.60;;
7881;SDS011;3986;41.884;23.466;2022-09-27T01:34:17;26.60;;;24.20;;
7881;SDS011;3986;41.884;23.466;2022-09-27T01:36:53;29.35;;;26.67;;
7881;SDS011;3986;41.884;23.466;2022-09-27T01:39:31;30.40;;;27.85;;
7881;SDS011;3986;41.884;23.466;2022-09-27T01:42:03;27.50;;;24.80;;
7881;SDS011;3986;41.884;23.466;2022-09-27T01:44:36;28.60;;;25.67;;
7881;SDS011;3986;41.884;23.466;2022-09-27T01:47:08;30.20;;;27.20;;
7881;SDS011;3986;41.884;23.466;2022-09-27T01:49:51;29.10;;;26.17;;
7881;SDS011;3986;41.884;23.466;2022-09-27T01:52:21;27.17;;;24.88;;
7881;SDS011;3986;41.884;23.466;2022-09-27T01:54:53;31.37;;;28.43;;
7881;SDS011;3986;41.884;23.466;2022-09-27T01:57:26;31.47;;;28.67;;
7881;SDS011;3986;41.884;23.466;2022-09-27T01:59:58;31.37;;;28.77;;
7881;SDS011;3986;41.884;23.466;2022-09-27T02:02:30;29.97;;;27.57;;
7881;SDS011;3986;41.884;23.466;2022-09-27T02:05:01;31.57;;;28.67;;
7881;SDS011;3986;41.884;23.466;2022-09-27T02:07:33;30.90;;;28.20;;
7881;SDS011;3986;41.884;23.466;2022-09-27T02:10:06;34.77;;;30.93;;
7881;SDS011;3986;41.884;23.466;2022-09-27T02:12:38;33.80;;;30.67;;
7881;SDS011;3986;41.884;23.466;2022-09-27T02:15:08;29.30;;;26.60;;
7881;SDS011;3986;41.884;23.466;2022-09-27T02:17:40;30.53;;;27.57;;
7881;SDS011;3986;41.884;23.466;2022-09-27T02:20:14;30.97;;;28.27;;
7881;SDS011;3986;41.884;23.466;2022-09-27T02:22:44;29.03;;;26.10;;
7881;SDS011;3986;41.884;23.466;2022-09-27T02:25:17;28.67;;;26.00;;
7881;SDS011;3986;41.884;23.466;2022-09-27T02:27:50;33.07;;;30.20;;
7881;SDS011;3986;41.884;23.466;2022-09-27T02:30:23;28.50;;;26.05;;
7881;SDS011;3986;41.884;23.466;2022-09-27T02:32:51;28.95;;;26.48;;
7881;SDS011;3986;41.884;23.466;2022-09-27T02:35:20;29.03;;;26.33;;
7881;SDS011;3986;41.884;23.466;2022-09-27T02:37:50;28.27;;;26.00;;
7881;SDS011;3986;41.884;23.466;2022-09-27T02:40:17;30.77;;;28.10;;
7881;SDS011;3986;41.884;23.466;2022-09-27T02:42:44;27.97;;;25.40;;
7881;SDS011;3986;41.884;23.466;2022-09-27T02:45:12;29.17;;;26.47;;
7881;SDS011;3986;41.884;23.466;2022-09-27T02:47:45;33.27;;;30.27;;
7881;SDS011;3986;41.884;23.466;2022-09-27T02:50:29;28.43;;;26.10;;
7881;SDS011;3986;41.884;23.466;2022-09-27T02:53:08;32.60;;;29.53;;
7881;SDS011;3986;41.884;23.466;2022-09-27T02:55:42;27.70;;;25.33;;
7881;SDS011;3986;41.884;23.466;2022-09-27T02:58:17;29.93;;;27.37;;
7881;SDS011;3986;41.884;23.466;2022-09-27T03:00:51;27.27;;;24.73;;
7881;SDS011;3986;41.884;23.466;2022-09-27T03:03:26;33.23;;;30.20;;
7881;SDS011;3986;41.884;23.466;2022-09-27T03:06:05;29.30;;;27.00;;
7881;SDS011;3986;41.884;23.466;2022-09-27T03:08:35;28.97;;;26.50;;
7881;SDS011;3986;41.884;23.466;2022-09-27T03:11:03;30.53;;;28.13;;
7881;SDS011;3986;41.884;23.466;2022-09-27T03:13:30;31.30;;;28.67;;
7881;SDS011;3986;41.884;23.466;2022-09-27T03:15:58;31.40;;;28.77;;
7881;SDS011;3986;41.884;23.466;2022-09-27T03:18:27;28.80;;;26.50;;
7881;SDS011;3986;41.884;23.466;2022-09-27T03:20:54;33.03;;;30.37;;
7881;SDS011;3986;41.884;23.466;2022-09-27T03:23:21;36.77;;;33.70;;
7881;SDS011;3986;41.884;23.466;2022-09-27T03:25:47;36.17;;;33.13;;
7881;SDS011;3986;41.884;23.466;2022-09-27T03:28:15;30.90;;;28.10;;
7881;SDS011;3986;41.884;23.466;2022-09-27T03:30:43;34.50;;;31.60;;
7881;SDS011;3986;41.884;23.466;2022-09-27T03:33:10;35.73;;;32.63;;
7881;SDS011;3986;41.884;23.466;2022-09-27T03:35:40;31.73;;;28.73;;
7881;SDS011;3986;41.884;23.466;2022-09-27T03:38:07;28.57;;;26.10;;
7881;SDS011;3986;41.884;23.466;2022-09-27T03:40:34;31.90;;;29.30;;
7881;SDS011;3986;41.884;23.466;2022-09-27T03:43:01;30.70;;;28.30;;
7881;SDS011;3986;41.884;23.466;2022-09-27T03:45:29;29.07;;;26.77;;
7881;SDS011;3986;41.884;23.466;2022-09-27T03:47:55;35.33;;;32.47;;
7881;SDS011;3986;41.884;23.466;2022-09-27T03:50:22;37.50;;;33.93;;
7881;SDS011;3986;41.884;23.466;2022-09-27T03:52:51;32.47;;;29.87;;
7881;SDS011;3986;41.884;23.466;2022-09-27T03:55:18;33.93;;;31.07;;
7881;SDS011;3986;41.884;23.466;2022-09-27T03:57:45;36.90;;;33.60;;
7881;SDS011;3986;41.884;23.466;2022-09-27T04:00:12;32.83;;;30.03;;
7881;SDS011;3986;41.884;23.466;2022-09-27T04:02:40;31.20;;;28.37;;
7881;SDS011;3986;41.884;23.466;2022-09-27T04:05:08;34.27;;;31.50;;
7881;SDS011;3986;41.884;23.466;2022-09-27T04:07:35;29.30;;;26.87;;
7881;SDS011;3986;41.884;23.466;2022-09-27T04:10:05;28.63;;;26.13;;
7881;SDS011;3986;41.884;23.466;2022-09-27T04:12:32;27.83;;;25.53;;
7881;SDS011;3986;41.884;23.466;2022-09-27T04:14:59;28.30;;;25.90;;
7881;SDS011;3986;41.884;23.466;2022-09-27T04:17:26;26.10;;;23.33;;
7881;SDS011;3986;41.884;23.466;2022-09-27T04:19:53;23.10;;;21.00;;
7881;SDS011;3986;41.884;23.466;2022-09-27T04:22:20;25.63;;;23.10;;
7881;SDS011;3986;41.884;23.466;2022-09-27T04:24:47;25.97;;;23.50;;
7881;SDS011;3986;41.884;23.466;2022-09-27T04:27:16;32.13;;;29.43;;
7881;SDS011;3986;41.884;23.466;2022-09-27T04:29:43;31.50;;;28.60;;
7881;SDS011;3986;41.884;23.466;2022-09-27T04:32:10;28.67;;;26.37;;
7881;SDS011;3986;41.884;23.466;2022-09-27T04:34:37;29.23;;;26.83;;
7881;SDS011;3986;41.884;23.466;2022-09-27T04:37:21;41.50;;;37.20;;
7881;SDS011;3986;41.884;23.466;2022-09-27T04:39:48;36.63;;;33.17;;
7881;SDS011;3986;41.884;23.466;2022-09-27T04:42:17;34.60;;;31.30;;
7881;SDS011;3986;41.884;23.466;2022-09-27T04:44:44;35.87;;;32.47;;
7881;SDS011;3986;41.884;23.466;2022-09-27T04:47:12;34.83;;;31.43;;
7881;SDS011;3986;41.884;23.466;2022-09-27T04:49:38;71.17;;;64.90;;
7881;SDS011;3986;41.884;23.466;2022-09-27T04:52:05;57.87;;;52.67;;
7881;SDS011;3986;41.884;23.466;2022-09-27T04:54:32;41.42;;;37.75;;
7881;SDS011;3986;41.884;23.466;2022-09-27T04:56:59;77.35;;;70.25;;
7881;SDS011;3986;41.884;23.466;2022-09-27T04:59:27;50.67;;;45.87;;
7881;SDS011;3986;41.884;23.466;2022-09-27T05:01:55;77.18;;;69.88;;
7881;SDS011;3986;41.884;23.466;2022-09-27T05:04:24;38.70;;;35.07;;
7881;SDS011;3986;41.884;23.466;2022-09-27T05:06:51;37.90;;;34.03;;
7881;SDS011;3986;41.884;23.466;2022-09-27T05:09:19;36.80;;;33.38;;
7881;SDS011;3986;41.884;23.466;2022-09-27T05:11:46;33.37;;;30.27;;
7881;SDS011;3986;41.884;23.466;2022-09-27T05:14:12;36.90;;;33.73;;
7881;SDS011;3986;41.884;23.466;2022-09-27T05:16:41;36.47;;;33.57;;
7881;SDS011;3986;41.884;23.466;2022-09-27T05:19:07;48.53;;;44.43;;
7881;SDS011;3986;41.884;23.466;2022-09-27T05:21:34;50.53;;;45.90;;
7881;SDS011;3986;41.884;23.466;2022-09-27T05:24:01;42.43;;;38.63;;
7881;SDS011;3986;41.884;23.466;2022-09-27T05:26:28;38.13;;;34.50;;
7881;SDS011;3986;41.884;23.466;2022-09-27T05:28:55;44.43;;;40.33;;
7881;SDS011;3986;41.884;23.466;2022-09-27T05:31:22;53.70;;;48.60;;
7881;SDS011;3986;41.884;23.466;2022-09-27T05:33:52;49.28;;;44.60;;
7881;SDS011;3986;41.884;23.466;2022-09-27T05:36:19;51.33;;;46.60;;
7881;SDS011;3986;41.884;23.466;2022-09-27T05:38:47;44.95;;;40.58;;
7881;SDS011;3986;41.884;23.466;2022-09-27T05:41:14;38.60;;;35.03;;
7881;SDS011;3986;41.884;23.466;2022-09-27T05:43:42;41.08;;;37.28;;
7881;SDS011;3986;41.884;23.466;2022-09-27T05:46:09;40.25;;;36.80;;
7881;SDS011;3986;41.884;23.466;2022-09-27T05:48:36;46.40;;;42.03;;
7881;SDS011;3986;41.884;23.466;2022-09-27T05:51:04;38.80;;;35.30;;
7881;SDS011;3986;41.884;23.466;2022-09-27T05:53:31;37.17;;;32.83;;
7881;SDS011;3986;41.884;23.466;2022-09-27T05:55:59;25.90;;;23.33;;
7881;SDS011;3986;41.884;23.466;2022-09-27T05:58:27;31.67;;;28.58;;
7881;SDS011;3986;41.884;23.466;2022-09-27T06:00:53;30.63;;;27.43;;
7881;SDS011;3986;41.884;23.466;2022-09-27T06:03:20;26.13;;;23.47;;
7881;SDS011;3986;41.884;23.466;2022-09-27T06:05:47;27.27;;;24.33;;
7881;SDS011;3986;41.884;23.466;2022-09-27T06:08:15;38.57;;;34.93;;
7881;SDS011;3986;41.884;23.466;2022-09-27T06:10:44;33.88;;;30.70;;
7881;SDS011;3986;41.884;23.466;2022-09-27T06:13:12;35.72;;;32.13;;
7881;SDS011;3986;41.884;23.466;2022-09-27T06:15:40;40.10;;;36.23;;
7881;SDS011;3986;41.884;23.466;2022-09-27T06:18:09;38.83;;;35.47;;
7881;SDS011;3986;41.884;23.466;2022-09-27T06:20:38;37.23;;;33.20;;
7881;SDS011;3986;41.884;23.466;2022-09-27T06:23:07;34.42;;;30.88;;
7881;SDS011;3986;41.884;23.466;2022-09-27T06:25:37;30.90;;;28.05;;
7881;SDS011;3986;41.884;23.466;2022-09-27T06:28:05;30.77;;;28.00;;
7881;SDS011;3986;41.884;23.466;2022-09-27T06:30:36;38.60;;;34.95;;
7881;SDS011;3986;41.884;23.466;2022-09-27T06:33:04;38.70;;;34.90;;
7881;SDS011;3986;41.884;23.466;2022-09-27T06:35:31;58.45;;;35.47;;
7881;SDS011;3986;41.884;23.466;2022-09-27T06:38:01;35.40;;;31.58;;
7881;SDS011;3986;41.884;23.466;2022-09-27T06:40:29;35.83;;;31.88;;
7881;SDS011;3986;41.884;23.466;2022-09-27T06:43:01;37.22;;;33.45;;
7881;SDS011;3986;41.884;23.466;2022-09-27T06:45:29;40.67;;;36.22;;
7881;SDS011;3986;41.884;23.466;2022-09-27T06:47:56;38.33;;;34.25;;
7881;SDS011;3986;41.884;23.466;2022-09-27T06:50:23;40.08;;;35.90;;
7881;SDS011;3986;41.884;23.466;2022-09-27T06:52:50;33.70;;;30.45;;
7881;SDS011;3986;41.884;23.466;2022-09-27T06:55:17;55.55;;;50.55;;
7881;SDS011;3986;41.884;23.466;2022-09-27T06:57:45;47.88;;;42.65;;
7881;SDS011;3986;41.884;23.466;2022-09-27T07:00:31;37.10;;;33.10;;
7881;SDS011;3986;41.884;23.466;2022-09-27T07:02:58;50.80;;;34.78;;
7881;SDS011;3986;41.884;23.466;2022-09-27T07:05:26;35.72;;;32.03;;
7881;SDS011;3986;41.884;23.466;2022-09-27T07:07:54;47.88;;;43.28;;
7881;SDS011;3986;41.884;23.466;2022-09-27T07:10:22;34.85;;;30.80;;
7881;SDS011;3986;41.884;23.466;2022-09-27T07:12:49;37.90;;;34.00;;
7881;SDS011;3986;41.884;23.466;2022-09-27T07:15:16;43.28;;;38.72;;
7881;SDS011;3986;41.884;23.466;2022-09-27T07:17:46;32.23;;;29.20;;
7881;SDS011;3986;41.884;23.466;2022-09-27T07:20:12;32.42;;;26.83;;
7881;SDS011;3986;41.884;23.466;2022-09-27T07:22:40;38.17;;;29.88;;
7881;SDS011;3986;41.884;23.466;2022-09-27T07:25:08;32.90;;;29.55;;
7881;SDS011;3986;41.884;23.466;2022-09-27T07:27:35;52.28;;;37.92;;
7881;SDS011;3986;41.884;23.466;2022-09-27T07:30:02;51.53;;;34.63;;
7881;SDS011;3986;41.884;23.466;2022-09-27T07:32:31;35.67;;;31.75;;
7881;SDS011;3986;41.884;23.466;2022-09-27T07:35:01;50.65;;;37.05;;
7881;SDS011;3986;41.884;23.466;2022-09-27T07:37:30;36.28;;;30.75;;
7881;SDS011;3986;41.884;23.466;2022-09-27T07:39:57;78.32;;;65.57;;
7881;SDS011;3986;41.884;23.466;2022-09-27T07:42:24;45.88;;;36.95;;
7881;SDS011;3986;41.884;23.466;2022-09-27T07:44:53;53.63;;;32.17;;
7881;SDS011;3986;41.884;23.466;2022-09-27T07:47:20;40.35;;;25.60;;
7881;SDS011;3986;41.884;23.466;2022-09-27T07:49:48;32.38;;;26.40;;
7881;SDS011;3986;41.884;23.466;2022-09-27T07:52:16;40.03;;;31.02;;
7881;SDS011;3986;41.884;23.466;2022-09-27T07:54:43;43.35;;;38.97;;
7881;SDS011;3986;41.884;23.466;2022-09-27T07:57:10;37.95;;;34.05;;
7881;SDS011;3986;41.884;23.466;2022-09-27T07:59:37;43.92;;;39.35;;
7881;SDS011;3986;41.884;23.466;2022-09-27T08:02:05;51.75;;;40.13;;
7881;SDS011;3986;41.884;23.466;2022-09-27T08:04:31;26.85;;;24.00;;
7881;SDS011;3986;41.884;23.466;2022-09-27T08:06:58;40.28;;;24.25;;
7881;SDS011;3986;41.884;23.466;2022-09-27T08:09:27;37.35;;;23.88;;
7881;SDS011;3986;41.884;23.466;2022-09-27T08:11:55;38.50;;;25.88;;
7881;SDS011;3986;41.884;23.466;2022-09-27T08:14:22;43.83;;;28.67;;
7881;SDS011;3986;41.884;23.466;2022-09-27T08:16:49;31.45;;;25.40;;
7881;SDS011;3986;41.884;23.466;2022-09-27T08:19:16;36.85;;;23.55;;
7881;SDS011;3986;41.884;23.466;2022-09-27T08:21:43;26.50;;;20.17;;
7881;SDS011;3986;41.884;23.466;2022-09-27T08:24:10;31.83;;;21.80;;
7881;SDS011;3986;41.884;23.466;2022-09-27T08:26:39;37.40;;;26.55;;
7881;SDS011;3986;41.884;23.466;2022-09-27T08:29:06;27.83;;;16.98;;
7881;SDS011;3986;41.884;23.466;2022-09-27T08:31:33;28.00;;;19.08;;
7881;SDS011;3986;41.884;23.466;2022-09-27T08:34:00;28.15;;;23.27;;
7881;SDS011;3986;41.884;23.466;2022-09-27T08:36:27;32.60;;;21.77;;
7881;SDS011;3986;41.884;23.466;2022-09-27T08:38:56;42.92;;;23.15;;
7881;SDS011;3986;41.884;23.466;2022-09-27T08:41:25;33.33;;;20.20;;
7881;SDS011;3986;41.884;23.466;2022-09-27T08:44:05;26.98;;;17.92;;
7881;SDS011;3986;41.884;23.466;2022-09-27T08:46:40;24.35;;;18.38;;
7881;SDS011;3986;41.884;23.466;2022-09-27T08:49:15;18.48;;;16.27;;
7881;SDS011;3986;41.884;23.466;2022-09-27T08:51:47;38.95;;;17.83;;
7881;SDS011;3986;41.884;23.466;2022-09-27T08:54:19;26.38;;;16.90;;
7881;SDS011;3986;41.884;23.466;2022-09-27T08:56:48;37.92;;;25.55;;
7881;SDS011;3986;41.884;23.466;2022-09-27T08:59:17;25.08;;;20.40;;
7881;SDS011;3986;41.884;23.466;2022-09-27T09:01:48;51.90;;;26.55;;
7881;SDS011;3986;41.884;23.466;2022-09-27T09:04:18;31.98;;;22.95;;
7881;SDS011;3986;41.884;23.466;2022-09-27T09:06:51;39.00;;;22.10;;
7881;SDS011;3986;41.884;23.466;2022-09-27T09:09:32;30.73;;;22.15;;
7881;SDS011;3986;41.884;23.466;2022-09-27T09:12:07;31.38;;;18.63;;
7881;SDS011;3986;41.884;23.466;2022-09-27T09:15:11;29.15;;;18.77;;
7881;SDS011;3986;41.884;23.466;2022-09-27T09:18:10;31.60;;;23.75;;
7881;SDS011;3986;41.884;23.466;2022-09-27T09:20:54;41.15;;;18.13;;
7881;SDS011;3986;41.884;23.466;2022-09-27T09:23:36;45.80;;;17.70;;
7881;SDS011;3986;41.884;23.466;2022-09-27T09:26:16;26.45;;;9.48;;
7881;SDS011;3986;41.884;23.466;2022-09-27T09:28:52;58.63;;;10.82;;
7881;SDS011;3986;41.884;23.466;2022-09-27T09:31:31;56.03;;;11.48;;
7881;SDS011;3986;41.884;23.466;2022-09-27T09:34:07;54.65;;;13.68;;
7881;SDS011;3986;41.884;23.466;2022-09-27T09:36:41;52.30;;;13.75;;
7881;SDS011;3986;41.884;23.466;2022-09-27T09:39:13;41.92;;;10.35;;
7881;SDS011;3986;41.884;23.466;2022-09-27T09:41:44;40.55;;;10.57;;
7881;SDS011;3986;41.884;23.466;2022-09-27T09:44:22;31.27;;;9.95;;
7881;SDS011;3986;41.884;23.466;2022-09-27T09:46:55;22.38;;;8.90;;
7881;SDS011;3986;41.884;23.466;2022-09-27T09:49:26;25.65;;;8.50;;
7881;SDS011;3986;41.884;23.466;2022-09-27T09:51:58;28.95;;;8.80;;
7881;SDS011;3986;41.884;23.466;2022-09-27T09:54:31;30.98;;;9.10;;
7881;SDS011;3986;41.884;23.466;2022-09-27T09:57:02;32.20;;;9.48;;
7881;SDS011;3986;41.884;23.466;2022-09-27T09:59:35;31.38;;;9.60;;
7881;SDS011;3986;41.884;23.466;2022-09-27T10:02:16;39.65;;;8.73;;
7881;SDS011;3986;41.884;23.466;2022-09-27T10:04:48;21.13;;;7.97;;
7881;SDS011;3986;41.884;23.466;2022-09-27T10:07:15;42.63;;;10.65;;
7881;SDS011;3986;41.884;23.466;2022-09-27T10:09:46;36.38;;;10.15;;
7881;SDS011;3986;41.884;23.466;2022-09-27T10:12:13;44.53;;;9.82;;
7881;SDS011;3986;41.884;23.466;2022-09-27T10:14:40;37.95;;;9.45;;
7881;SDS011;3986;41.884;23.466;2022-09-27T10:17:10;21.17;;;9.13;;
7881;SDS011;3986;41.884;23.466;2022-09-27T10:19:44;22.70;;;9.90;;
7881;SDS011;3986;41.884;23.466;2022-09-27T10:22:13;32.40;;;11.77;;
7881;SDS011;3986;41.884;23.466;2022-09-27T10:24:54;37.20;;;16.35;;
7881;SDS011;3986;41.884;23.466;2022-09-27T10:27:23;19.63;;;10.68;;
7881;SDS011;3986;41.884;23.466;2022-09-27T10:29:59;25.23;;;10.57;;
7881;SDS011;3986;41.884;23.466;2022-09-27T10:32:27;18.50;;;9.73;;
7881;SDS011;3986;41.884;23.466;2022-09-27T10:37:47;32.42;;;11.15;;
7881;SDS011;3986;41.884;23.466;2022-09-27T10:40:24;23.85;;;10.02;;
7881;SDS011;3986;41.884;23.466;2022-09-27T10:42:53;25.30;;;10.73;;
7881;SDS011;3986;41.884;23.466;2022-09-27T10:45:23;17.10;;;8.45;;
7881;SDS011;3986;41.884;23.466;2022-09-27T10:47:53;17.05;;;8.52;;
7881;SDS011;3986;41.884;23.466;2022-09-27T10:50:24;17.30;;;9.43;;
7881;SDS011;3986;41.884;23.466;2022-09-27T10:53:02;21.55;;;9.95;;
7881;SDS011;3986;41.884;23.466;2022-09-27T10:55:31;23.65;;;9.82;;
7881;SDS011;3986;41.884;23.466;2022-09-27T10:57:59;23.05;;;10.40;;
7881;SDS011;3986;41.884;23.466;2022-09-27T11:00:28;27.58;;;11.00;;
7881;SDS011;3986;41.884;23.466;2022-09-27T11:02:57;28.65;;;10.38;;
7881;SDS011;3986;41.884;23.466;2022-09-27T11:05:31;37.53;;;10.50;;
7881;SDS011;3986;41.884;23.466;2022-09-27T11:08:01;37.13;;;10.65;;
7881;SDS011;3986;41.884;23.466;2022-09-27T11:10:59;48.35;;;11.48;;
7881;SDS011;3986;41.884;23.466;2022-09-27T11:13:32;44.50;;;11.68;;
7881;SDS011;3986;41.884;23.466;2022-09-27T11:16:14;44.65;;;13.55;;
7881;SDS011;3986;41.884;23.466;2022-09-27T11:18:50;23.77;;;11.10;;
7881;SDS011;3986;41.884;23.466;2022-09-27T11:21:30;34.40;;;11.32;;
7881;SDS011;3986;41.884;23.466;2022-09-27T11:24:16;25.75;;;9.85;;
7881;SDS011;3986;41.884;23.466;2022-09-27T11:26:56;36.03;;;11.50;;
7881;SDS011;3986;41.884;23.466;2022-09-27T11:29:32;24.73;;;10.77;;
7881;SDS011;3986;41.884;23.466;2022-09-27T11:32:17;57.38;;;25.02;;
7881;SDS011;3986;41.884;23.466;2022-09-27T11:35:00;20.98;;;12.95;;
7881;SDS011;3986;41.884;23.466;2022-09-27T11:37:42;41.17;;;13.23;;
7881;SDS011;3986;41.884;23.466;2022-09-27T11:40:20;43.88;;;13.07;;
7881;SDS011;3986;41.884;23.466;2022-09-27T11:45:56;28.20;;;11.05;;
7881;SDS011;3986;41.884;23.466;2022-09-27T11:48:39;30.45;;;12.25;;
7881;SDS011;3986;41.884;23.466;2022-09-27T11:51:28;23.38;;;11.48;;
7881;SDS011;3986;41.884;23.466;2022-09-27T11:54:11;48.90;;;19.67;;
7881;SDS011;3986;41.884;23.466;2022-09-27T11:56:54;28.02;;;16.70;;
7881;SDS011;3986;41.884;23.466;2022-09-27T11:59:40;28.73;;;14.75;;
7881;SDS011;3986;41.884;23.466;2022-09-27T12:02:38;27.52;;;19.98;;
7881;SDS011;3986;41.884;23.466;2022-09-27T12:05:24;18.58;;;16.75;;
7881;SDS011;3986;41.884;23.466;2022-09-27T12:08:05;26.38;;;18.38;;
7881;SDS011;3986;41.884;23.466;2022-09-27T12:10:45;29.00;;;18.85;;
7881;SDS011;3986;41.884;23.466;2022-09-27T12:13:26;36.53;;;21.80;;
7881;SDS011;3986;41.884;23.466;2022-09-27T12:15:59;34.30;;;25.23;;
7881;SDS011;3986;41.884;23.466;2022-09-27T12:18:28;23.70;;;21.25;;
7881;SDS011;3986;41.884;23.466;2022-09-27T12:20:58;42.60;;;26.45;;
7881;SDS011;3986;41.884;23.466;2022-09-27T12:23:28;40.55;;;26.88;;
7881;SDS011;3986;41.884;23.466;2022-09-27T12:26:06;44.25;;;28.75;;
7881;SDS011;3986;41.884;23.466;2022-09-27T12:28:37;40.17;;;22.60;;
7881;SDS011;3986;41.884;23.466;2022-09-27T12:31:12;49.80;;;22.13;;
7881;SDS011;3986;41.884;23.466;2022-09-27T12:33:44;43.95;;;17.77;;
7881;SDS011;3986;41.884;23.466;2022-09-27T12:36:17;47.05;;;22.95;;
7881;SDS011;3986;41.884;23.466;2022-09-27T12:38:50;52.33;;;29.83;;
7881;SDS011;3986;41.884;23.466;2022-09-27T12:41:23;50.35;;;22.30;;
7881;SDS011;3986;41.884;23.466;2022-09-27T12:43:53;43.88;;;27.13;;
7881;SDS011;3986;41.884;23.466;2022-09-27T12:46:23;48.55;;;29.98;;
7881;SDS011;3986;41.884;23.466;2022-09-27T12:49:00;32.78;;;22.40;;
7881;SDS011;3986;41.884;23.466;2022-09-27T12:51:31;32.03;;;22.38;;
7881;SDS011;3986;41.884;23.466;2022-09-27T12:54:05;38.35;;;20.83;;
7881;SDS011;3986;41.884;23.466;2022-09-27T12:56:50;28.50;;;19.38;;
7881;SDS011;3986;41.884;23.466;2022-09-27T12:59:30;32.15;;;18.63;;
7881;SDS011;3986;41.884;23.466;2022-09-27T13:05:13;44.70;;;20.88;;
7881;SDS011;3986;41.884;23.466;2022-09-27T13:07:52;48.97;;;24.08;;
7881;SDS011;3986;41.884;23.466;2022-09-27T13:10:42;62.45;;;20.75;;
7881;SDS011;3986;41.884;23.466;2022-09-27T13:13:18;43.75;;;19.45;;
7881;SDS011;3986;41.884;23.466;2022-09-27T13:15:47;37.22;;;20.65;;
7881;SDS011;3986;41.884;23.466;2022-09-27T13:18:28;31.88;;;21.40;;
7881;SDS011;3986;41.884;23.466;2022-09-27T13:24:28;39.95;;;32.67;;
7881;SDS011;3986;41.884;23.466;2022-09-27T13:33:27;49.38;;;30.85;;
7881;SDS011;3986;41.884;23.466;2022-09-27T13:36:20;28.55;;;23.27;;
7881;SDS011;3986;41.884;23.466;2022-09-27T13:39:15;38.22;;;34.47;;
7881;SDS011;3986;41.884;23.466;2022-09-27T13:44:54;35.90;;;29.48;;
7881;SDS011;3986;41.884;23.466;2022-09-27T13:47:38;34.83;;;29.08;;
7881;SDS011;3986;41.884;23.466;2022-09-27T13:50:13;38.55;;;34.92;;
7881;SDS011;3986;41.884;23.466;2022-09-27T13:52:52;36.17;;;32.58;;
7881;SDS011;3986;41.884;23.466;2022-09-27T13:55:37;36.28;;;32.58;;
7881;SDS011;3986;41.884;23.466;2022-09-27T13:58:12;30.52;;;27.75;;
7881;SDS011;3986;41.884;23.466;2022-09-27T14:00:43;37.63;;;33.45;;
7881;SDS011;3986;41.884;23.466;2022-09-27T14:03:15;47.83;;;27.70;;
7881;SDS011;3986;41.884;23.466;2022-09-27T14:05:49;30.50;;;26.42;;
7881;SDS011;3986;41.884;23.466;2022-09-27T14:08:22;43.70;;;30.05;;
7881;SDS011;3986;41.884;23.466;2022-09-27T14:10:54;33.35;;;24.88;;
7881;SDS011;3986;41.884;23.466;2022-09-27T14:13:22;27.73;;;24.45;;
7881;SDS011;3986;41.884;23.466;2022-09-27T14:15:51;32.47;;;25.77;;
7881;SDS011;3986;41.884;23.466;2022-09-27T14:18:22;35.35;;;31.67;;
7881;SDS011;3986;41.884;23.466;2022-09-27T14:20:49;31.45;;;28.33;;
7881;SDS011;3986;41.884;23.466;2022-09-27T14:23:19;37.20;;;33.33;;
7881;SDS011;3986;41.884;23.466;2022-09-27T14:25:49;45.55;;;35.58;;
7881;SDS011;3986;41.884;23.466;2022-09-27T14:28:18;36.15;;;32.55;;
7881;SDS011;3986;41.884;23.466;2022-09-27T14:31:02;40.97;;;37.10;;
7881;SDS011;3986;41.884;23.466;2022-09-27T14:33:32;38.90;;;34.92;;
7881;SDS011;3986;41.884;23.466;2022-09-27T14:35:59;47.42;;;31.67;;
7881;SDS011;3986;41.884;23.466;2022-09-27T14:38:44;37.42;;;31.13;;
7881;SDS011;3986;41.884;23.466;2022-09-27T14:41:13;68.47;;;61.05;;
7881;SDS011;3986;41.884;23.466;2022-09-27T14:43:41;36.53;;;32.22;;
7881;SDS011;3986;41.884;23.466;2022-09-27T14:46:24;43.00;;;38.63;;
7881;SDS011;3986;41.884;23.466;2022-09-27T14:48:53;95.85;;;86.85;;
7881;SDS011;3986;41.884;23.466;2022-09-27T14:51:24;52.88;;;47.75;;
7881;SDS011;3986;41.884;23.466;2022-09-27T14:53:53;57.58;;;51.67;;
7881;SDS011;3986;41.884;23.466;2022-09-27T14:56:24;121.82;;;109.18;;
7881;SDS011;3986;41.884;23.466;2022-09-27T14:58:55;51.40;;;45.95;;
7881;SDS011;3986;41.884;23.466;2022-09-27T15:01:26;45.50;;;40.22;;
7881;SDS011;3986;41.884;23.466;2022-09-27T15:03:55;50.78;;;45.58;;
7881;SDS011;3986;41.884;23.466;2022-09-27T15:06:28;65.57;;;58.67;;
7881;SDS011;3986;41.884;23.466;2022-09-27T15:08:56;61.85;;;56.40;;
7881;SDS011;3986;41.884;23.466;2022-09-27T15:11:23;52.55;;;47.03;;
7881;SDS011;3986;41.884;23.466;2022-09-27T15:13:52;59.65;;;53.88;;
7881;SDS011;3986;41.884;23.466;2022-09-27T15:16:20;62.17;;;54.00;;
7881;SDS011;3986;41.884;23.466;2022-09-27T15:18:48;62.88;;;56.65;;
7881;SDS011;3986;41.884;23.466;2022-09-27T15:21:28;74.68;;;67.70;;
7881;SDS011;3986;41.884;23.466;2022-09-27T15:23:56;74.07;;;66.82;;